createdAt,value
2023-03-13T00:01:46.548Z,10.40
2023-03-13T00:04:13.585Z,10.50
2023-03-13T00:06:41.225Z,10.40
2023-03-13T00:09:11.819Z,10.40
2023-03-13T00:11:39.986Z,10.50
2023-03-13T00:14:08.733Z,10.60
2023-03-13T00:16:37.572Z,10.60
2023-03-13T00:19:06.559Z,10.50
2023-03-13T00:21:33.999Z,10.60
2023-03-13T00:24:01.397Z,10.60
2023-03-13T00:26:29.478Z,10.50
2023-03-13T00:28:57.032Z,10.60
2023-03-13T00:31:27.801Z,10.60
2023-03-13T00:33:59.753Z,10.50
2023-03-13T00:36:30.355Z,10.50
2023-03-13T00:38:58.029Z,10.50
2023-03-13T00:41:28.917Z,10.50
2023-03-13T00:43:56.629Z,10.50
2023-03-13T00:46:27.396Z,10.60
2023-03-13T00:48:54.663Z,10.50
2023-03-13T00:51:24.182Z,10.50
2023-03-13T00:53:51.098Z,10.50
2023-03-13T00:56:20.108Z,10.50
2023-03-13T00:58:49.110Z,10.40
2023-03-13T01:01:22.802Z,10.50
2023-03-13T01:04:02.632Z,10.50
2023-03-13T01:06:32.033Z,10.40
2023-03-13T01:08:59.679Z,10.50
2023-03-13T01:11:30.694Z,10.40
2023-03-13T01:14:13.097Z,10.40
2023-03-13T01:16:40.699Z,10.40
2023-03-13T01:19:15.070Z,10.50
2023-03-13T01:21:43.973Z,10.50
2023-03-13T01:24:11.267Z,10.50
2023-03-13T01:26:38.494Z,10.40
2023-03-13T01:29:05.461Z,10.60
2023-03-13T01:31:35.447Z,10.50
2023-03-13T01:34:05.599Z,10.40
2023-03-13T01:36:33.789Z,10.70
2023-03-13T01:39:01.458Z,10.60
2023-03-13T01:41:30.575Z,10.60
2023-03-13T01:43:58.700Z,10.60
2023-03-13T01:46:30.197Z,10.60
2023-03-13T01:49:16.506Z,10.60
2023-03-13T01:52:09.911Z,10.50
2023-03-13T01:54:48.372Z,10.40
2023-03-13T01:57:25.352Z,10.40
2023-03-13T02:00:10.729Z,10.40
2023-03-13T02:02:41.048Z,10.40
2023-03-13T02:05:09.044Z,10.30
2023-03-13T02:07:51.177Z,10.30
2023-03-13T02:10:19.009Z,10.40
2023-03-13T02:12:47.345Z,10.40
2023-03-13T02:15:19.168Z,10.40
2023-03-13T02:17:49.065Z,10.50
2023-03-13T02:20:20.726Z,10.40
2023-03-13T02:22:53.658Z,10.30
2023-03-13T02:25:50.703Z,10.40
2023-03-13T02:28:33.745Z,10.30
2023-03-13T02:31:01.647Z,10.40
2023-03-13T02:33:32.419Z,10.50
2023-03-13T02:36:02.785Z,10.50
2023-03-13T02:38:33.386Z,10.50
2023-03-13T02:41:02.844Z,10.40
2023-03-13T02:43:36.586Z,10.60
2023-03-13T02:46:10.471Z,10.60
2023-03-13T02:48:42.185Z,10.60
2023-03-13T02:51:39.991Z,10.60
2023-03-13T02:54:12.718Z,10.70
2023-03-13T02:56:43.219Z,10.70
2023-03-13T02:59:10.335Z,10.70
2023-03-13T03:01:37.277Z,10.80
2023-03-13T03:04:04.438Z,10.90
2023-03-13T03:06:31.461Z,10.80
2023-03-13T03:08:58.400Z,10.80
2023-03-13T03:11:25.316Z,10.90
2023-03-13T03:13:52.245Z,11.00
2023-03-13T03:16:19.360Z,10.90
2023-03-13T03:18:46.883Z,10.90
2023-03-13T03:21:13.791Z,11.00
2023-03-13T03:23:40.698Z,10.90
2023-03-13T03:26:09.381Z,11.00
2023-03-13T03:28:36.277Z,11.00
2023-03-13T03:31:08.583Z,11.00
2023-03-13T03:33:36.733Z,10.90
2023-03-13T03:36:07.780Z,10.90
2023-03-13T03:38:35.623Z,10.90
2023-03-13T03:41:02.618Z,10.80
2023-03-13T03:43:29.521Z,10.80
2023-03-13T03:45:56.470Z,10.70
2023-03-13T03:48:23.409Z,10.70
2023-03-13T03:50:50.482Z,10.70
2023-03-13T03:53:17.374Z,10.60
2023-03-13T03:55:45.170Z,10.50
2023-03-13T03:58:12.175Z,10.40
2023-03-13T04:00:39.227Z,10.40
2023-03-13T04:03:06.263Z,10.30
2023-03-13T04:05:33.172Z,10.30
2023-03-13T04:08:00.177Z,10.30
2023-03-13T04:10:27.150Z,10.30
2023-03-13T04:12:54.097Z,10.30
2023-03-13T04:15:21.051Z,10.40
2023-03-13T04:17:47.947Z,10.40
2023-03-13T04:20:15.258Z,10.40
2023-03-13T04:22:42.610Z,10.40
2023-03-13T04:25:11.124Z,10.40
2023-03-13T04:27:38.293Z,10.30
2023-03-13T04:30:07.147Z,10.30
2023-03-13T04:32:34.083Z,10.30
2023-03-13T04:35:01.074Z,10.40
2023-03-13T04:37:28.050Z,10.40
2023-03-13T04:39:54.988Z,10.40
2023-03-13T04:42:22.120Z,10.40
2023-03-13T04:44:49.158Z,10.40
2023-03-13T04:47:16.054Z,10.40
2023-03-13T04:49:42.964Z,10.50
2023-03-13T04:52:10.099Z,10.50
2023-03-13T04:54:37.075Z,10.50
2023-03-13T04:57:04.097Z,10.60
2023-03-13T04:59:33.232Z,10.60
2023-03-13T05:02:00.318Z,10.60
2023-03-13T05:04:27.298Z,10.60
2023-03-13T05:06:54.184Z,10.60
2023-03-13T05:09:21.097Z,10.80
2023-03-13T05:11:48.018Z,10.80
2023-03-13T05:14:15.062Z,10.80
2023-03-13T05:16:42.046Z,10.80
2023-03-13T05:19:08.993Z,10.80
2023-03-13T05:21:35.880Z,10.90
2023-03-13T05:24:02.771Z,10.90
2023-03-13T05:26:29.726Z,10.90
2023-03-13T05:28:56.804Z,11.00
2023-03-13T05:31:23.882Z,11.00
2023-03-13T05:33:50.862Z,11.00
2023-03-13T05:36:17.760Z,11.00
2023-03-13T05:38:45.285Z,11.00
2023-03-13T05:41:12.226Z,11.00
2023-03-13T05:43:39.184Z,11.00
2023-03-13T05:46:06.158Z,11.00
2023-03-13T05:48:33.133Z,11.00
2023-03-13T05:51:00.056Z,11.00
2023-03-13T05:53:26.970Z,11.00
2023-03-13T05:55:53.884Z,11.00
2023-03-13T05:58:20.797Z,10.90
2023-03-13T06:00:48.718Z,11.00
2023-03-13T06:03:15.746Z,11.00
2023-03-13T06:05:42.941Z,11.00
2023-03-13T06:08:09.918Z,11.00
2023-03-13T06:10:36.857Z,11.10
2023-03-13T06:13:17.386Z,11.10
2023-03-13T06:15:57.804Z,11.10
2023-03-13T06:18:26.002Z,11.10
2023-03-13T06:20:59.553Z,11.10
2023-03-13T06:23:27.130Z,11.10
2023-03-13T06:25:54.587Z,11.10
2023-03-13T06:28:21.714Z,11.10
2023-03-13T06:30:48.657Z,11.10
2023-03-13T06:33:15.650Z,11.10
2023-03-13T06:35:55.889Z,11.10
2023-03-13T06:38:28.429Z,11.10
2023-03-13T06:40:55.445Z,11.20
2023-03-13T06:43:22.771Z,11.20
2023-03-13T06:45:50.010Z,11.30
2023-03-13T06:48:17.417Z,11.30
2023-03-13T06:50:44.968Z,11.30
2023-03-13T06:53:18.380Z,11.30
2023-03-13T06:55:46.369Z,11.40
2023-03-13T06:58:25.361Z,11.50
2023-03-13T07:00:58.226Z,11.50
2023-03-13T07:03:25.527Z,11.50
2023-03-13T07:05:57.962Z,11.60
2023-03-13T07:08:25.731Z,11.60
2023-03-13T07:10:54.473Z,11.70
2023-03-13T07:13:22.236Z,11.70
2023-03-13T07:15:49.399Z,11.80
2023-03-13T07:18:16.594Z,11.90
2023-03-13T07:20:44.012Z,11.80
2023-03-13T07:23:11.072Z,11.90
2023-03-13T07:25:37.953Z,12.00
2023-03-13T07:28:05.065Z,12.00
2023-03-13T07:30:32.185Z,12.10
2023-03-13T07:32:59.216Z,12.20
2023-03-13T07:35:26.249Z,12.20
2023-03-13T07:37:53.237Z,12.30
2023-03-13T07:40:20.158Z,12.20
2023-03-13T07:42:47.143Z,12.20
2023-03-13T07:45:14.064Z,12.30
2023-03-13T07:47:41.035Z,12.40
2023-03-13T07:50:09.179Z,12.40
2023-03-13T07:52:36.118Z,12.40
2023-03-13T07:55:03.249Z,12.40
2023-03-13T07:57:31.311Z,12.50
2023-03-13T07:59:58.300Z,12.40
2023-03-13T08:02:25.278Z,12.40
2023-03-13T08:04:53.174Z,12.40
2023-03-13T08:07:20.249Z,12.50
2023-03-13T08:09:47.558Z,12.50
2023-03-13T08:12:14.565Z,12.50
2023-03-13T08:14:41.522Z,12.50
2023-03-13T08:17:08.578Z,12.50
2023-03-13T08:19:35.584Z,12.60
2023-03-13T08:22:04.646Z,12.60
2023-03-13T08:24:31.670Z,12.60
2023-03-13T08:26:58.681Z,12.60
2023-03-13T08:29:25.669Z,12.70
2023-03-13T08:31:53.618Z,12.60
2023-03-13T08:34:20.761Z,12.60
2023-03-13T08:36:48.013Z,12.60
2023-03-13T08:39:18.279Z,12.70
2023-03-13T08:41:45.645Z,12.80
2023-03-13T08:44:16.406Z,12.90
2023-03-13T08:46:44.087Z,12.90
2023-03-13T08:49:12.174Z,12.90
2023-03-13T08:51:39.603Z,12.90
2023-03-13T08:54:06.768Z,12.90
2023-03-13T08:56:34.837Z,13.00
2023-03-13T08:59:04.451Z,12.90
2023-03-13T09:01:34.509Z,13.00
2023-03-13T09:04:04.145Z,13.10
2023-03-13T09:06:33.788Z,13.20
2023-03-13T09:09:01.346Z,13.50
2023-03-13T09:11:28.730Z,13.80
2023-03-13T09:13:59.266Z,13.90
2023-03-13T09:16:30.049Z,14.20
2023-03-13T09:18:58.319Z,14.30
2023-03-13T09:21:29.425Z,14.40
2023-03-13T09:23:57.038Z,14.40
2023-03-13T09:26:25.430Z,14.40
2023-03-13T09:28:53.492Z,14.30
2023-03-13T09:31:25.809Z,14.30
2023-03-13T09:33:54.200Z,14.20
2023-03-13T09:36:23.777Z,14.20
2023-03-13T09:38:54.099Z,14.30
2023-03-13T09:41:45.016Z,14.40
2023-03-13T09:44:22.156Z,14.40
2023-03-13T09:47:01.172Z,14.30
2023-03-13T09:49:47.123Z,14.30
2023-03-13T09:52:22.684Z,14.40
2023-03-13T09:55:03.640Z,14.50
2023-03-13T09:57:55.798Z,14.60
2023-03-13T10:00:37.099Z,14.60
2023-03-13T10:03:22.358Z,14.80
2023-03-13T10:05:59.605Z,14.90
2023-03-13T10:08:32.221Z,15.30
2023-03-13T10:11:37.500Z,15.60
2023-03-13T10:14:20.957Z,15.80
2023-03-13T10:17:22.147Z,16.10
2023-03-13T10:19:57.610Z,16.00
2023-03-13T10:22:30.046Z,16.10
2023-03-13T10:25:05.112Z,16.30
2023-03-13T10:27:32.005Z,16.40
2023-03-13T10:29:58.871Z,16.50
2023-03-13T10:32:27.696Z,16.60
2023-03-13T10:35:02.449Z,16.70
2023-03-13T10:37:41.536Z,16.60
2023-03-13T10:40:14.724Z,16.70
2023-03-13T10:42:46.008Z,16.90
2023-03-13T10:45:20.107Z,17.00
2023-03-13T10:48:01.342Z,17.40
2023-03-13T10:50:34.854Z,17.90
2023-03-13T10:53:28.977Z,17.70
2023-03-13T10:56:10.419Z,17.50
2023-03-13T10:58:50.065Z,17.20
2023-03-13T11:01:32.055Z,17.50
2023-03-13T11:04:02.346Z,17.70
2023-03-13T11:06:35.971Z,17.90
2023-03-13T11:09:15.590Z,17.60
2023-03-13T11:11:55.920Z,17.70
2023-03-13T11:14:25.999Z,17.60
2023-03-13T11:17:29.318Z,17.70
2023-03-13T11:20:28.789Z,17.80
2023-03-13T11:23:28.109Z,17.80
2023-03-13T11:26:40.769Z,17.80
2023-03-13T11:29:29.892Z,17.90
2023-03-13T11:32:08.174Z,17.80
2023-03-13T11:34:54.544Z,18.00
2023-03-13T11:37:22.911Z,18.00
2023-03-13T11:40:07.060Z,17.90
2023-03-13T11:43:23.576Z,18.10
2023-03-13T11:46:08.805Z,18.20
2023-03-13T11:49:14.634Z,18.40
2023-03-13T11:51:54.157Z,19.10
2023-03-13T11:55:00.994Z,18.90
2023-03-13T11:57:35.298Z,18.80
2023-03-13T12:00:44.828Z,18.90
2023-03-13T12:03:19.488Z,18.90
2023-03-13T12:05:55.683Z,19.10
2023-03-13T12:08:32.152Z,19.40
2023-03-13T12:11:29.096Z,19.70
2023-03-13T12:14:05.584Z,19.90
2023-03-13T12:17:06.311Z,19.60
2023-03-13T12:19:56.884Z,19.50
2023-03-13T12:22:51.862Z,19.40
2023-03-13T12:25:25.411Z,19.30
2023-03-13T12:28:03.065Z,19.20
2023-03-13T12:30:59.547Z,19.10
2023-03-13T12:33:44.689Z,19.10
2023-03-13T12:36:22.614Z,19.30
2023-03-13T12:39:20.506Z,19.50
2023-03-13T12:42:07.599Z,19.50
2023-03-13T12:44:35.151Z,19.50
2023-03-13T12:47:18.483Z,19.40
2023-03-13T12:49:59.159Z,19.50
2023-03-13T12:53:06.084Z,19.50
2023-03-13T12:56:04.305Z,19.60
2023-03-13T12:59:00.578Z,19.50
2023-03-13T13:01:53.677Z,19.30
2023-03-13T13:04:33.856Z,19.20
2023-03-13T13:07:07.665Z,19.30
2023-03-13T13:10:01.554Z,19.40
2023-03-13T13:12:28.964Z,19.40
2023-03-13T13:15:05.266Z,19.60
2023-03-13T13:17:43.215Z,19.80
2023-03-13T13:20:32.063Z,20.00
2023-03-13T13:23:34.170Z,20.20
2023-03-13T13:26:37.366Z,20.30
2023-03-13T13:29:13.524Z,20.40
2023-03-13T13:31:59.483Z,20.20
2023-03-13T13:34:31.989Z,20.10
2023-03-13T13:37:12.245Z,20.10
2023-03-13T13:39:52.789Z,20.20
2023-03-13T13:42:35.477Z,20.30
2023-03-13T13:45:15.977Z,20.40
2023-03-13T13:47:46.680Z,20.50
2023-03-13T13:50:29.035Z,20.50
2023-03-13T13:53:42.216Z,20.60
2023-03-13T13:56:27.959Z,20.70
2023-03-13T13:59:21.113Z,20.70
2023-03-13T14:01:51.252Z,20.60
2023-03-13T14:05:01.165Z,20.60
2023-03-13T14:07:37.135Z,20.80
2023-03-13T14:10:43.956Z,20.70
2023-03-13T14:13:22.440Z,20.70
2023-03-13T14:15:53.421Z,20.70
2023-03-13T14:18:30.999Z,20.80
2023-03-13T14:21:04.226Z,20.70
2023-03-13T14:23:44.027Z,20.50
2023-03-13T14:26:13.617Z,20.60
2023-03-13T14:28:44.496Z,20.80
2023-03-13T14:31:35.758Z,21.10
2023-03-13T14:34:14.918Z,21.10
2023-03-13T14:36:52.230Z,21.00
2023-03-13T14:39:45.123Z,20.90
2023-03-13T14:42:19.293Z,21.00
2023-03-13T14:44:50.037Z,20.90
2023-03-13T14:47:23.807Z,21.00
2023-03-13T14:50:04.879Z,21.00
2023-03-13T14:52:33.861Z,21.00
2023-03-13T14:55:08.268Z,21.00
2023-03-13T14:57:36.087Z,21.00
2023-03-13T15:00:39.819Z,21.20
2023-03-13T15:03:16.903Z,21.30
2023-03-13T15:05:47.309Z,21.20
2023-03-13T15:08:22.594Z,21.20
2023-03-13T15:10:50.930Z,21.20
2023-03-13T15:13:29.404Z,21.10
2023-03-13T15:15:56.404Z,21.10
2023-03-13T15:18:33.017Z,21.20
2023-03-13T15:21:29.801Z,21.30
2023-03-13T15:24:14.288Z,21.30
2023-03-13T15:26:41.559Z,21.20
2023-03-13T15:29:12.332Z,21.30
2023-03-13T15:31:40.030Z,21.40
2023-03-13T15:34:13.260Z,21.30
2023-03-13T15:36:41.721Z,21.20
2023-03-13T15:39:23.040Z,21.10
2023-03-13T15:41:50.156Z,21.20
2023-03-13T15:44:17.201Z,21.20
2023-03-13T15:46:44.149Z,21.20
2023-03-13T15:49:13.049Z,21.20
2023-03-13T15:51:40.064Z,21.20
2023-03-13T15:54:07.056Z,21.30
2023-03-13T15:56:38.493Z,21.30
2023-03-13T15:59:13.745Z,21.40
2023-03-13T16:01:41.399Z,21.30
2023-03-13T16:04:10.094Z,21.20
2023-03-13T16:06:37.088Z,21.00
2023-03-13T16:09:06.819Z,20.90
2023-03-13T16:11:34.208Z,20.80
2023-03-13T16:14:01.283Z,20.70
2023-03-13T16:16:31.697Z,20.60
2023-03-13T16:19:00.334Z,20.60
2023-03-13T16:21:34.431Z,20.50
2023-03-13T16:24:01.448Z,20.40
2023-03-13T16:26:31.578Z,20.30
2023-03-13T16:28:58.890Z,20.30
2023-03-13T16:31:29.624Z,20.30
2023-03-13T16:33:58.440Z,20.20
2023-03-13T16:36:30.102Z,20.10
2023-03-13T16:39:02.093Z,20.00
2023-03-13T16:41:29.953Z,20.00
2023-03-13T16:43:57.443Z,19.90
2023-03-13T16:46:59.225Z,18.40
2023-03-13T16:49:31.526Z,17.30
2023-03-13T16:51:58.433Z,16.70
2023-03-13T16:54:25.393Z,16.40
2023-03-13T16:56:52.367Z,16.30
2023-03-13T16:59:19.664Z,16.30
2023-03-13T17:01:47.181Z,16.10
2023-03-13T17:04:14.390Z,15.70
2023-03-13T17:06:44.511Z,15.50
2023-03-13T17:09:16.003Z,15.40
2023-03-13T17:11:43.992Z,15.20
2023-03-13T17:14:11.271Z,15.00
2023-03-13T17:16:45.607Z,14.80
2023-03-13T17:19:17.054Z,14.70
2023-03-13T17:21:44.072Z,14.60
2023-03-13T17:24:11.120Z,14.40
2023-03-13T17:26:39.812Z,14.20
2023-03-13T17:29:10.474Z,14.00
2023-03-13T17:31:38.463Z,13.90
2023-03-13T17:34:06.914Z,13.80
2023-03-13T17:36:35.252Z,13.70
2023-03-13T17:39:06.370Z,13.60
2023-03-13T17:41:35.662Z,13.70
2023-03-13T17:44:05.405Z,13.70
2023-03-13T17:46:46.968Z,13.60
2023-03-13T17:49:17.281Z,13.60
2023-03-13T17:51:46.505Z,13.80
2023-03-13T17:54:15.740Z,13.90
2023-03-13T17:56:44.761Z,14.00
2023-03-13T17:59:17.689Z,14.10
2023-03-13T18:01:45.455Z,14.10
2023-03-13T18:04:13.984Z,14.30
2023-03-13T18:06:45.011Z,14.40
2023-03-13T18:09:16.386Z,14.30
2023-03-13T18:11:43.963Z,14.30
2023-03-13T18:14:11.421Z,14.20
2023-03-13T18:16:57.056Z,14.30
2023-03-13T18:19:26.132Z,14.20
2023-03-13T18:21:55.515Z,14.20
2023-03-13T18:24:22.966Z,14.10
2023-03-13T18:26:50.400Z,14.10
2023-03-13T18:29:26.185Z,14.10
2023-03-13T18:31:55.498Z,14.10
2023-03-13T18:34:24.717Z,14.20
2023-03-13T18:36:52.136Z,14.10
2023-03-13T18:39:20.175Z,14.10
2023-03-13T18:41:48.768Z,14.10
2023-03-13T18:44:16.286Z,14.20
2023-03-13T18:46:43.895Z,14.20
2023-03-13T18:49:21.302Z,14.10
2023-03-13T18:51:50.131Z,14.10
2023-03-13T18:54:17.772Z,14.00
2023-03-13T18:56:47.417Z,14.00
2023-03-13T18:59:20.718Z,14.00
2023-03-13T19:01:48.451Z,13.90
2023-03-13T19:04:16.453Z,13.80
2023-03-13T19:06:43.486Z,13.80
2023-03-13T19:09:41.531Z,13.80
2023-03-13T19:12:05.504Z,13.70
2023-03-13T19:14:32.638Z,13.60
2023-03-13T19:17:00.695Z,13.20
2023-03-13T19:19:27.637Z,12.80
2023-03-13T19:21:57.170Z,12.50
2023-03-13T19:24:26.779Z,12.40
2023-03-13T19:26:58.977Z,12.30
2023-03-13T19:29:28.419Z,12.10
2023-03-13T19:31:55.671Z,12.00
2023-03-13T19:34:22.785Z,12.10
2023-03-13T19:36:50.325Z,12.10
2023-03-13T19:39:25.804Z,12.00
2023-03-13T19:41:54.134Z,12.00
2023-03-13T19:44:21.686Z,12.00
2023-03-13T19:46:49.246Z,11.90
2023-03-13T19:49:19.515Z,11.90
2023-03-13T19:51:47.770Z,11.90
2023-03-13T19:54:15.515Z,11.90
2023-03-13T19:56:48.474Z,12.00
2023-03-13T19:59:24.053Z,12.10
2023-03-13T20:01:51.339Z,12.10
2023-03-13T20:04:18.690Z,12.10
2023-03-13T20:06:45.724Z,12.10
2023-03-13T20:09:17.855Z,12.10
2023-03-13T20:11:45.344Z,12.10
2023-03-13T20:14:12.459Z,12.10
2023-03-13T20:16:39.400Z,12.00
2023-03-13T20:19:06.556Z,12.10
2023-03-13T20:21:37.120Z,12.20
2023-03-13T20:24:04.924Z,12.20
2023-03-13T20:26:31.975Z,12.20
2023-03-13T20:28:59.018Z,12.10
2023-03-13T20:31:30.707Z,12.10
2023-03-13T20:33:59.283Z,11.90
2023-03-13T20:36:26.771Z,11.80
2023-03-13T20:38:54.126Z,11.70
2023-03-13T20:41:24.704Z,11.60
2023-03-13T20:43:53.809Z,11.60
2023-03-13T20:46:21.274Z,11.50
2023-03-13T20:48:48.951Z,11.50
2023-03-13T20:51:16.100Z,11.40
2023-03-13T20:53:43.319Z,11.40
2023-03-13T20:56:11.958Z,11.30
2023-03-13T20:58:39.481Z,11.30
2023-03-13T21:01:07.638Z,11.30
2023-03-13T21:03:35.646Z,11.20
2023-03-13T21:06:17.496Z,11.30
2023-03-13T21:08:46.961Z,11.30
2023-03-13T21:11:16.767Z,11.20
2023-03-13T21:13:45.078Z,11.20
2023-03-13T21:16:15.195Z,11.20
2023-03-13T21:18:42.584Z,11.20
2023-03-13T21:21:15.005Z,11.20
2023-03-13T21:23:42.275Z,11.10
2023-03-13T21:26:09.876Z,11.10
2023-03-13T21:28:38.669Z,11.10
2023-03-13T21:31:15.201Z,11.20
2023-03-13T21:33:44.691Z,11.20
2023-03-13T21:36:13.483Z,11.30
2023-03-13T21:38:40.477Z,11.30
2023-03-13T21:41:15.757Z,11.30
2023-03-13T21:43:43.547Z,11.30
2023-03-13T21:46:13.706Z,11.30
2023-03-13T21:48:43.104Z,11.30
2023-03-13T21:51:11.246Z,11.30
2023-03-13T21:53:38.846Z,11.40
2023-03-13T21:56:06.535Z,11.30
2023-03-13T21:58:33.524Z,11.40
2023-03-13T22:01:00.639Z,11.30
2023-03-13T22:03:27.671Z,11.40
2023-03-13T22:05:55.095Z,11.40
2023-03-13T22:08:22.092Z,11.30
2023-03-13T22:10:52.294Z,11.20
2023-03-13T22:13:19.345Z,11.20
2023-03-13T22:15:46.846Z,11.20
2023-03-13T22:18:15.415Z,11.20
2023-03-13T22:20:43.393Z,11.20
2023-03-13T22:23:12.873Z,11.20
2023-03-13T22:25:45.853Z,11.20
2023-03-13T22:28:12.779Z,11.20
2023-03-13T22:30:40.100Z,11.20
2023-03-13T22:33:07.971Z,11.20
2023-03-13T22:35:37.250Z,11.20
2023-03-13T22:38:04.624Z,11.10
2023-03-13T22:40:32.273Z,11.20
2023-03-13T22:42:59.363Z,11.20
2023-03-13T22:45:26.438Z,11.10
2023-03-13T22:47:53.367Z,11.20
2023-03-13T22:50:25.505Z,11.20
2023-03-13T22:52:53.665Z,11.10
2023-03-13T22:55:20.872Z,11.20
2023-03-13T22:57:47.759Z,11.10
2023-03-13T23:00:15.805Z,11.20
2023-03-13T23:02:42.757Z,11.20
2023-03-13T23:05:10.189Z,11.20
2023-03-13T23:07:40.483Z,11.20
2023-03-13T23:10:10.089Z,11.20
2023-03-13T23:12:37.104Z,11.20
2023-03-13T23:15:06.741Z,11.20
2023-03-13T23:17:36.260Z,11.20
2023-03-13T23:20:13.154Z,11.30
2023-03-13T23:22:42.605Z,11.30
2023-03-13T23:25:11.025Z,11.30
2023-03-13T23:27:37.943Z,11.30
2023-03-13T23:30:07.411Z,11.40
2023-03-13T23:32:44.776Z,11.40
2023-03-13T23:35:13.472Z,11.40
2023-03-13T23:37:40.571Z,11.40
2023-03-13T23:40:13.071Z,11.40
2023-03-13T23:42:39.924Z,11.50
2023-03-13T23:45:09.131Z,11.40
2023-03-13T23:47:36.256Z,11.40
2023-03-13T23:50:05.360Z,11.50
2023-03-13T23:52:36.245Z,11.40
2023-03-13T23:55:04.574Z,11.50
2023-03-13T23:57:31.761Z,11.50
